Terminal Aerodrome Forecast
Issued by NWS Sterling, VA

Current Version | Previous Version | Graphics & Text | Print | Product List | Glossary On
Versions: 1 2 3 4 5 6 7 8 9 10 11 12 13 14
784
FTUS41 KLWX 241129
TAFMRB
TAF
KMRB 241129Z 2412/2512 00000KT P6SM FEW250
     FM241600 19005KT P6SM SCT050
     FM250600 VRB03KT P6SM SCT200
     FM250900 00000KT 5SM BR SCT120=

USA.gov is the U.S. government's official web portal to all federal, state and local government web resources and services.